sensor_id;sensor_type;location;lat;lon;timestamp;temperature;humidity
13850;DHT22;6995;52.618;13.488;2022-07-29T00:01:06;16.30;11.10
13850;DHT22;6995;52.618;13.488;2022-07-29T00:03:32;16.20;10.70
13850;DHT22;6995;52.618;13.488;2022-07-29T00:05:57;16.30;11.60
13850;DHT22;6995;52.618;13.488;2022-07-29T00:08:23;16.20;12.00
13850;DHT22;6995;52.618;13.488;2022-07-29T00:10:48;16.20;15.20
13850;DHT22;6995;52.618;13.488;2022-07-29T00:13:14;16.20;17.00
13850;DHT22;6995;52.618;13.488;2022-07-29T00:15:40;16.10;17.30
13850;DHT22;6995;52.618;13.488;2022-07-29T00:18:05;16.10;17.90
13850;DHT22;6995;52.618;13.488;2022-07-29T00:20:31;16.00;20.10
13850;DHT22;6995;52.618;13.488;2022-07-29T00:22:57;16.10;22.40
13850;DHT22;6995;52.618;13.488;2022-07-29T00:25:22;16.10;22.40
13850;DHT22;6995;52.618;13.488;2022-07-29T00:27:48;16.10;23.00
13850;DHT22;6995;52.618;13.488;2022-07-29T00:30:14;16.10;24.20
13850;DHT22;6995;52.618;13.488;2022-07-29T00:32:40;16.00;26.70
13850;DHT22;6995;52.618;13.488;2022-07-29T00:35:06;16.00;25.50
13850;DHT22;6995;52.618;13.488;2022-07-29T00:37:51;15.90;30.50
13850;DHT22;6995;52.618;13.488;2022-07-29T00:40:16;15.90;32.10
13850;DHT22;6995;52.618;13.488;2022-07-29T00:42:43;15.90;31.00
13850;DHT22;6995;52.618;13.488;2022-07-29T00:45:10;15.90;36.40
13850;DHT22;6995;52.618;13.488;2022-07-29T00:47:35;15.90;35.20
13850;DHT22;6995;52.618;13.488;2022-07-29T00:50:01;15.90;33.30
13850;DHT22;6995;52.618;13.488;2022-07-29T00:52:27;15.90;33.00
13850;DHT22;6995;52.618;13.488;2022-07-29T00:54:52;15.90;34.60
13850;DHT22;6995;52.618;13.488;2022-07-29T00:57:21;15.90;36.50
13850;DHT22;6995;52.618;13.488;2022-07-29T00:59:47;15.90;39.50
13850;DHT22;6995;52.618;13.488;2022-07-29T01:02:12;15.80;40.10
13850;DHT22;6995;52.618;13.488;2022-07-29T01:04:38;15.80;42.50
13850;DHT22;6995;52.618;13.488;2022-07-29T01:07:04;15.70;45.00
13850;DHT22;6995;52.618;13.488;2022-07-29T01:09:32;15.70;44.90
13850;DHT22;6995;52.618;13.488;2022-07-29T01:11:58;15.70;46.10
13850;DHT22;6995;52.618;13.488;2022-07-29T01:14:25;15.70;45.20
13850;DHT22;6995;52.618;13.488;2022-07-29T01:21:57;15.70;49.20
13850;DHT22;6995;52.618;13.488;2022-07-29T01:29:55;15.70;49.60
13850;DHT22;6995;52.618;13.488;2022-07-29T01:32:26;15.60;52.00
13850;DHT22;6995;52.618;13.488;2022-07-29T01:40:19;15.60;56.80
13850;DHT22;6995;52.618;13.488;2022-07-29T01:42:49;15.50;58.30
13850;DHT22;6995;52.618;13.488;2022-07-29T01:48:06;15.40;68.00
13850;DHT22;6995;52.618;13.488;2022-07-29T01:50:56;15.40;66.00
13850;DHT22;6995;52.618;13.488;2022-07-29T01:53:44;15.30;72.90
13850;DHT22;6995;52.618;13.488;2022-07-29T01:56:13;15.30;77.00
13850;DHT22;6995;52.618;13.488;2022-07-29T01:58:42;15.20;78.20
13850;DHT22;6995;52.618;13.488;2022-07-29T02:01:09;15.20;82.10
13850;DHT22;6995;52.618;13.488;2022-07-29T02:03:38;15.10;85.20
13850;DHT22;6995;52.618;13.488;2022-07-29T02:06:06;15.10;85.70
13850;DHT22;6995;52.618;13.488;2022-07-29T02:08:33;15.10;87.10
13850;DHT22;6995;52.618;13.488;2022-07-29T02:11:00;15.10;89.90
13850;DHT22;6995;52.618;13.488;2022-07-29T02:13:28;15.10;89.90
13850;DHT22;6995;52.618;13.488;2022-07-29T02:15:56;15.10;88.40
13850;DHT22;6995;52.618;13.488;2022-07-29T02:18:23;15.10;86.90
13850;DHT22;6995;52.618;13.488;2022-07-29T02:20:52;15.00;92.70
13850;DHT22;6995;52.618;13.488;2022-07-29T02:23:21;15.00;94.10
13850;DHT22;6995;52.618;13.488;2022-07-29T02:25:55;15.10;94.50
13850;DHT22;6995;52.618;13.488;2022-07-29T02:28:24;15.00;97.30
13850;DHT22;6995;52.618;13.488;2022-07-29T02:30:52;15.00;96.60
13850;DHT22;6995;52.618;13.488;2022-07-29T02:33:18;15.00;96.60
13850;DHT22;6995;52.618;13.488;2022-07-29T02:35:46;15.00;97.10
13850;DHT22;6995;52.618;13.488;2022-07-29T02:38:15;15.00;99.90
13850;DHT22;6995;52.618;13.488;2022-07-29T02:41:03;15.00;99.10
13850;DHT22;6995;52.618;13.488;2022-07-29T02:43:30;15.00;99.90
13850;DHT22;6995;52.618;13.488;2022-07-29T02:45:58;15.00;99.90
13850;DHT22;6995;52.618;13.488;2022-07-29T02:48:34;15.00;99.90
13850;DHT22;6995;52.618;13.488;2022-07-29T02:51:07;15.00;99.90
13850;DHT22;6995;52.618;13.488;2022-07-29T02:53:34;15.10;99.90
13850;DHT22;6995;52.618;13.488;2022-07-29T02:56:06;15.00;99.90
13850;DHT22;6995;52.618;13.488;2022-07-29T02:58:42;15.00;99.90
13850;DHT22;6995;52.618;13.488;2022-07-29T03:01:22;15.10;99.90
13850;DHT22;6995;52.618;13.488;2022-07-29T03:03:50;15.00;99.90
13850;DHT22;6995;52.618;13.488;2022-07-29T03:06:20;15.00;99.90
13850;DHT22;6995;52.618;13.488;2022-07-29T03:08:46;15.10;99.90
13850;DHT22;6995;52.618;13.488;2022-07-29T03:11:13;15.20;97.90
13850;DHT22;6995;52.618;13.488;2022-07-29T03:13:40;15.20;98.00
13850;DHT22;6995;52.618;13.488;2022-07-29T03:16:08;15.30;92.70
13850;DHT22;6995;52.618;13.488;2022-07-29T03:18:35;15.30;93.20
13850;DHT22;6995;52.618;13.488;2022-07-29T03:21:02;15.30;96.90
13850;DHT22;6995;52.618;13.488;2022-07-29T03:23:28;15.30;91.20
13850;DHT22;6995;52.618;13.488;2022-07-29T03:25:54;15.30;92.30
13850;DHT22;6995;52.618;13.488;2022-07-29T03:28:20;15.30;90.20
13850;DHT22;6995;52.618;13.488;2022-07-29T03:30:46;15.30;87.70
13850;DHT22;6995;52.618;13.488;2022-07-29T03:33:12;15.40;85.10
13850;DHT22;6995;52.618;13.488;2022-07-29T03:35:37;15.40;87.70
13850;DHT22;6995;52.618;13.488;2022-07-29T03:38:03;15.40;86.90
13850;DHT22;6995;52.618;13.488;2022-07-29T03:40:38;15.40;85.90
13850;DHT22;6995;52.618;13.488;2022-07-29T03:43:07;15.40;87.30
13850;DHT22;6995;52.618;13.488;2022-07-29T03:45:34;15.40;85.70
13850;DHT22;6995;52.618;13.488;2022-07-29T03:48:05;15.40;85.60
13850;DHT22;6995;52.618;13.488;2022-07-29T03:50:33;15.40;86.00
13850;DHT22;6995;52.618;13.488;2022-07-29T03:53:00;15.40;89.70
13850;DHT22;6995;52.618;13.488;2022-07-29T03:55:28;15.40;84.20
13850;DHT22;6995;52.618;13.488;2022-07-29T03:57:57;15.50;83.30
13850;DHT22;6995;52.618;13.488;2022-07-29T04:00:24;15.50;99.90
13850;DHT22;6995;52.618;13.488;2022-07-29T04:02:50;15.50;80.80
13850;DHT22;6995;52.618;13.488;2022-07-29T04:05:28;15.50;80.80
13850;DHT22;6995;52.618;13.488;2022-07-29T04:07:58;15.50;79.50
13850;DHT22;6995;52.618;13.488;2022-07-29T04:10:24;15.50;81.40
13850;DHT22;6995;52.618;13.488;2022-07-29T04:12:57;15.50;80.10
13850;DHT22;6995;52.618;13.488;2022-07-29T04:15:30;15.60;99.90
13850;DHT22;6995;52.618;13.488;2022-07-29T04:17:57;15.60;78.70
13850;DHT22;6995;52.618;13.488;2022-07-29T04:20:35;15.60;76.70
13850;DHT22;6995;52.618;13.488;2022-07-29T04:23:04;15.70;78.60
13850;DHT22;6995;52.618;13.488;2022-07-29T04:25:30;15.70;75.60
13850;DHT22;6995;52.618;13.488;2022-07-29T04:27:57;15.80;77.30
13850;DHT22;6995;52.618;13.488;2022-07-29T04:30:28;15.80;73.30
13850;DHT22;6995;52.618;13.488;2022-07-29T04:32:54;15.80;74.80
13850;DHT22;6995;52.618;13.488;2022-07-29T04:35:21;15.90;74.60
13850;DHT22;6995;52.618;13.488;2022-07-29T04:37:47;15.90;71.60
13850;DHT22;6995;52.618;13.488;2022-07-29T04:40:13;16.00;69.50
13850;DHT22;6995;52.618;13.488;2022-07-29T04:42:39;16.00;67.70
13850;DHT22;6995;52.618;13.488;2022-07-29T04:45:05;16.10;65.00
13850;DHT22;6995;52.618;13.488;2022-07-29T04:47:31;16.10;67.30
13850;DHT22;6995;52.618;13.488;2022-07-29T04:49:57;16.10;64.80
13850;DHT22;6995;52.618;13.488;2022-07-29T04:52:23;16.10;66.00
13850;DHT22;6995;52.618;13.488;2022-07-29T04:54:49;16.20;62.90
13850;DHT22;6995;52.618;13.488;2022-07-29T04:57:15;16.20;65.20
13850;DHT22;6995;52.618;13.488;2022-07-29T04:59:41;16.20;62.10
13850;DHT22;6995;52.618;13.488;2022-07-29T05:02:07;16.20;60.80
13850;DHT22;6995;52.618;13.488;2022-07-29T05:04:33;16.30;61.20
13850;DHT22;6995;52.618;13.488;2022-07-29T05:07:01;16.30;56.20
13850;DHT22;6995;52.618;13.488;2022-07-29T05:09:27;16.40;58.40
13850;DHT22;6995;52.618;13.488;2022-07-29T05:11:52;16.40;57.00
13850;DHT22;6995;52.618;13.488;2022-07-29T05:14:18;16.50;56.30
13850;DHT22;6995;52.618;13.488;2022-07-29T05:16:43;16.70;53.40
13850;DHT22;6995;52.618;13.488;2022-07-29T05:19:09;16.80;52.80
13850;DHT22;6995;52.618;13.488;2022-07-29T05:21:35;17.00;47.60
13850;DHT22;6995;52.618;13.488;2022-07-29T05:24:01;17.20;43.60
13850;DHT22;6995;52.618;13.488;2022-07-29T05:26:27;17.30;40.00
13850;DHT22;6995;52.618;13.488;2022-07-29T05:28:52;17.60;39.50
13850;DHT22;6995;52.618;13.488;2022-07-29T05:31:19;17.80;43.50
13850;DHT22;6995;52.618;13.488;2022-07-29T05:33:44;17.90;38.50
13850;DHT22;6995;52.618;13.488;2022-07-29T05:36:11;18.20;26.70
13850;DHT22;6995;52.618;13.488;2022-07-29T05:38:37;18.50;20.20
13850;DHT22;6995;52.618;13.488;2022-07-29T05:41:09;18.70;20.90
13850;DHT22;6995;52.618;13.488;2022-07-29T05:43:35;18.80;16.70
13850;DHT22;6995;52.618;13.488;2022-07-29T05:46:01;18.70;16.30
13850;DHT22;6995;52.618;13.488;2022-07-29T05:48:31;18.70;17.10
13850;DHT22;6995;52.618;13.488;2022-07-29T05:50:57;18.80;16.20
13850;DHT22;6995;52.618;13.488;2022-07-29T05:53:31;18.70;13.80
13850;DHT22;6995;52.618;13.488;2022-07-29T05:55:57;18.70;14.60
13850;DHT22;6995;52.618;13.488;2022-07-29T05:58:56;18.80;12.70
13850;DHT22;6995;52.618;13.488;2022-07-29T06:01:25;18.80;14.00
13850;DHT22;6995;52.618;13.488;2022-07-29T06:03:52;18.80;11.80
13850;DHT22;6995;52.618;13.488;2022-07-29T06:06:17;18.80;11.10
13850;DHT22;6995;52.618;13.488;2022-07-29T06:08:43;18.90;11.10
13850;DHT22;6995;52.618;13.488;2022-07-29T06:11:09;19.00;9.70
13850;DHT22;6995;52.618;13.488;2022-07-29T06:13:35;19.00;11.20
13850;DHT22;6995;52.618;13.488;2022-07-29T06:16:00;19.10;10.30
13850;DHT22;6995;52.618;13.488;2022-07-29T06:18:26;19.30;10.50
13850;DHT22;6995;52.618;13.488;2022-07-29T06:20:52;19.40;9.30
13850;DHT22;6995;52.618;13.488;2022-07-29T06:23:19;19.60;5.60
13850;DHT22;6995;52.618;13.488;2022-07-29T06:25:45;19.80;3.20
13850;DHT22;6995;52.618;13.488;2022-07-29T06:28:11;20.00;1.00
13850;DHT22;6995;52.618;13.488;2022-07-29T06:30:37;20.20;2.00
13850;DHT22;6995;52.618;13.488;2022-07-29T06:33:03;20.30;1.50
13850;DHT22;6995;52.618;13.488;2022-07-29T06:35:29;20.50;1.00
13850;DHT22;6995;52.618;13.488;2022-07-29T06:37:54;20.50;1.00
13850;DHT22;6995;52.618;13.488;2022-07-29T06:40:20;20.50;1.00
13850;DHT22;6995;52.618;13.488;2022-07-29T06:43:04;20.60;1.00
13850;DHT22;6995;52.618;13.488;2022-07-29T06:45:33;20.90;1.00
13850;DHT22;6995;52.618;13.488;2022-07-29T06:48:08;20.90;1.00
13850;DHT22;6995;52.618;13.488;2022-07-29T06:50:39;21.00;1.00
13850;DHT22;6995;52.618;13.488;2022-07-29T06:53:08;21.00;1.00
13850;DHT22;6995;52.618;13.488;2022-07-29T06:55:33;21.00;1.00
13850;DHT22;6995;52.618;13.488;2022-07-29T06:57:59;21.00;1.00
13850;DHT22;6995;52.618;13.488;2022-07-29T07:00:25;21.10;1.00
13850;DHT22;6995;52.618;13.488;2022-07-29T07:02:50;21.00;1.00
13850;DHT22;6995;52.618;13.488;2022-07-29T07:05:16;21.00;1.00
13850;DHT22;6995;52.618;13.488;2022-07-29T07:07:45;21.00;1.00
13850;DHT22;6995;52.618;13.488;2022-07-29T07:10:10;21.20;1.00
13850;DHT22;6995;52.618;13.488;2022-07-29T07:12:36;21.20;1.00
13850;DHT22;6995;52.618;13.488;2022-07-29T07:15:02;21.50;1.00
13850;DHT22;6995;52.618;13.488;2022-07-29T07:17:28;21.50;1.00
13850;DHT22;6995;52.618;13.488;2022-07-29T07:19:54;21.70;1.00
13850;DHT22;6995;52.618;13.488;2022-07-29T07:22:19;21.80;1.00
13850;DHT22;6995;52.618;13.488;2022-07-29T07:24:45;21.80;1.00
13850;DHT22;6995;52.618;13.488;2022-07-29T07:27:11;22.10;1.00
13850;DHT22;6995;52.618;13.488;2022-07-29T07:29:37;22.50;1.00
13850;DHT22;6995;52.618;13.488;2022-07-29T07:32:07;23.00;1.00
13850;DHT22;6995;52.618;13.488;2022-07-29T07:34:33;23.30;1.00
13850;DHT22;6995;52.618;13.488;2022-07-29T07:36:59;23.50;1.00
13850;DHT22;6995;52.618;13.488;2022-07-29T07:39:25;23.20;1.00
13850;DHT22;6995;52.618;13.488;2022-07-29T07:41:52;23.30;1.00
13850;DHT22;6995;52.618;13.488;2022-07-29T07:44:17;23.20;1.00
13850;DHT22;6995;52.618;13.488;2022-07-29T07:46:43;22.90;1.00
13850;DHT22;6995;52.618;13.488;2022-07-29T07:49:10;22.80;1.00
13850;DHT22;6995;52.618;13.488;2022-07-29T07:51:36;23.00;1.00
13850;DHT22;6995;52.618;13.488;2022-07-29T07:54:01;23.20;1.00
13850;DHT22;6995;52.618;13.488;2022-07-29T07:56:27;23.60;1.00
13850;DHT22;6995;52.618;13.488;2022-07-29T07:58:53;23.80;1.00
13850;DHT22;6995;52.618;13.488;2022-07-29T08:01:22;23.70;1.00
13850;DHT22;6995;52.618;13.488;2022-07-29T08:03:49;23.80;1.00
13850;DHT22;6995;52.618;13.488;2022-07-29T08:06:15;23.90;1.00
13850;DHT22;6995;52.618;13.488;2022-07-29T08:08:41;24.20;1.00
13850;DHT22;6995;52.618;13.488;2022-07-29T08:11:06;24.40;1.00
13850;DHT22;6995;52.618;13.488;2022-07-29T08:13:33;24.50;1.00
13850;DHT22;6995;52.618;13.488;2022-07-29T08:15:59;24.50;1.00
13850;DHT22;6995;52.618;13.488;2022-07-29T08:18:36;24.60;1.00
13850;DHT22;6995;52.618;13.488;2022-07-29T08:21:03;24.70;1.00
13850;DHT22;6995;52.618;13.488;2022-07-29T08:23:29;24.80;1.00
13850;DHT22;6995;52.618;13.488;2022-07-29T08:26:06;25.00;1.00
13850;DHT22;6995;52.618;13.488;2022-07-29T08:28:37;25.00;1.00
13850;DHT22;6995;52.618;13.488;2022-07-29T08:31:03;24.70;1.00
13850;DHT22;6995;52.618;13.488;2022-07-29T08:33:29;24.70;1.00
13850;DHT22;6995;52.618;13.488;2022-07-29T08:35:55;24.70;1.00
13850;DHT22;6995;52.618;13.488;2022-07-29T08:38:26;24.50;1.00
13850;DHT22;6995;52.618;13.488;2022-07-29T08:40:53;24.40;1.00
13850;DHT22;6995;52.618;13.488;2022-07-29T08:43:19;24.40;1.00
13850;DHT22;6995;52.618;13.488;2022-07-29T08:45:50;24.60;1.00
13850;DHT22;6995;52.618;13.488;2022-07-29T08:48:21;24.50;1.00
13850;DHT22;6995;52.618;13.488;2022-07-29T08:50:48;24.60;1.00
13850;DHT22;6995;52.618;13.488;2022-07-29T08:53:16;24.60;1.00
13850;DHT22;6995;52.618;13.488;2022-07-29T08:55:44;24.40;1.00
13850;DHT22;6995;52.618;13.488;2022-07-29T08:58:10;24.40;1.00
13850;DHT22;6995;52.618;13.488;2022-07-29T09:00:37;24.40;1.00
13850;DHT22;6995;52.618;13.488;2022-07-29T09:03:06;24.60;1.00
13850;DHT22;6995;52.618;13.488;2022-07-29T09:05:34;24.70;1.00
13850;DHT22;6995;52.618;13.488;2022-07-29T09:08:01;24.80;1.00
13850;DHT22;6995;52.618;13.488;2022-07-29T09:10:26;24.90;1.00
13850;DHT22;6995;52.618;13.488;2022-07-29T09:12:54;24.90;1.00
13850;DHT22;6995;52.618;13.488;2022-07-29T09:15:20;24.80;1.00
13850;DHT22;6995;52.618;13.488;2022-07-29T09:17:47;24.70;1.00
13850;DHT22;6995;52.618;13.488;2022-07-29T09:20:22;24.70;1.00
13850;DHT22;6995;52.618;13.488;2022-07-29T09:22:49;24.70;1.00
13850;DHT22;6995;52.618;13.488;2022-07-29T09:25:38;24.70;1.00
13850;DHT22;6995;52.618;13.488;2022-07-29T09:28:13;24.80;1.00
13850;DHT22;6995;52.618;13.488;2022-07-29T09:30:57;24.90;1.00
13850;DHT22;6995;52.618;13.488;2022-07-29T09:33:30;25.10;1.00
13850;DHT22;6995;52.618;13.488;2022-07-29T09:36:07;25.40;1.00
13850;DHT22;6995;52.618;13.488;2022-07-29T09:38:33;25.70;1.00
13850;DHT22;6995;52.618;13.488;2022-07-29T09:41:02;25.90;1.00
13850;DHT22;6995;52.618;13.488;2022-07-29T09:43:28;26.00;1.00
13850;DHT22;6995;52.618;13.488;2022-07-29T09:45:54;26.20;1.00
13850;DHT22;6995;52.618;13.488;2022-07-29T09:48:24;26.20;1.00
13850;DHT22;6995;52.618;13.488;2022-07-29T09:50:51;26.40;1.00
13850;DHT22;6995;52.618;13.488;2022-07-29T09:53:34;26.60;1.00
13850;DHT22;6995;52.618;13.488;2022-07-29T09:56:00;26.80;1.00
13850;DHT22;6995;52.618;13.488;2022-07-29T09:58:26;26.90;1.00
13850;DHT22;6995;52.618;13.488;2022-07-29T10:00:53;27.00;1.00
13850;DHT22;6995;52.618;13.488;2022-07-29T10:03:20;26.90;1.00
13850;DHT22;6995;52.618;13.488;2022-07-29T10:05:47;26.90;1.00
13850;DHT22;6995;52.618;13.488;2022-07-29T10:08:28;26.80;1.00
13850;DHT22;6995;52.618;13.488;2022-07-29T10:11:15;26.90;1.00
13850;DHT22;6995;52.618;13.488;2022-07-29T10:13:42;26.90;1.00
13850;DHT22;6995;52.618;13.488;2022-07-29T10:16:12;26.80;1.00
13850;DHT22;6995;52.618;13.488;2022-07-29T10:18:39;26.70;1.00
13850;DHT22;6995;52.618;13.488;2022-07-29T10:21:05;26.70;1.00
13850;DHT22;6995;52.618;13.488;2022-07-29T10:23:31;27.00;1.00
13850;DHT22;6995;52.618;13.488;2022-07-29T10:25:57;27.20;1.00
13850;DHT22;6995;52.618;13.488;2022-07-29T10:28:23;27.00;1.00
13850;DHT22;6995;52.618;13.488;2022-07-29T10:30:51;27.10;1.00
13850;DHT22;6995;52.618;13.488;2022-07-29T10:34:06;27.30;1.00
13850;DHT22;6995;52.618;13.488;2022-07-29T10:39:39;27.70;1.00
13850;DHT22;6995;52.618;13.488;2022-07-29T10:42:19;27.80;1.00
13850;DHT22;6995;52.618;13.488;2022-07-29T10:44:46;27.50;1.00
13850;DHT22;6995;52.618;13.488;2022-07-29T10:47:26;27.40;1.00
13850;DHT22;6995;52.618;13.488;2022-07-29T10:49:56;27.70;1.00
13850;DHT22;6995;52.618;13.488;2022-07-29T10:52:22;27.80;1.00
13850;DHT22;6995;52.618;13.488;2022-07-29T10:54:50;27.70;1.00
13850;DHT22;6995;52.618;13.488;2022-07-29T10:57:28;27.60;1.00
13850;DHT22;6995;52.618;13.488;2022-07-29T11:05:05;27.50;1.00
13850;DHT22;6995;52.618;13.488;2022-07-29T11:07:33;27.70;1.00
13850;DHT22;6995;52.618;13.488;2022-07-29T11:22:56;28.50;1.00
13850;DHT22;6995;52.618;13.488;2022-07-29T11:25:23;28.40;1.00
13850;DHT22;6995;52.618;13.488;2022-07-29T11:27:49;28.10;1.00
13850;DHT22;6995;52.618;13.488;2022-07-29T11:30:17;28.10;1.00
13850;DHT22;6995;52.618;13.488;2022-07-29T11:32:44;27.90;1.00
13850;DHT22;6995;52.618;13.488;2022-07-29T11:35:21;27.90;1.00
13850;DHT22;6995;52.618;13.488;2022-07-29T11:41:23;28.30;1.00
13850;DHT22;6995;52.618;13.488;2022-07-29T11:49:05;29.30;1.00
13850;DHT22;6995;52.618;13.488;2022-07-29T11:51:36;29.60;1.00
13850;DHT22;6995;52.618;13.488;2022-07-29T11:54:02;29.70;1.00
13850;DHT22;6995;52.618;13.488;2022-07-29T11:56:31;30.00;1.00
13850;DHT22;6995;52.618;13.488;2022-07-29T11:59:07;30.10;1.00
13850;DHT22;6995;52.618;13.488;2022-07-29T12:01:35;29.90;1.00
13850;DHT22;6995;52.618;13.488;2022-07-29T12:04:05;30.10;1.00
13850;DHT22;6995;52.618;13.488;2022-07-29T12:06:33;30.40;1.00
13850;DHT22;6995;52.618;13.488;2022-07-29T12:08:58;30.30;1.00
13850;DHT22;6995;52.618;13.488;2022-07-29T12:11:24;30.10;1.00
13850;DHT22;6995;52.618;13.488;2022-07-29T12:13:51;29.70;1.00
13850;DHT22;6995;52.618;13.488;2022-07-29T12:16:21;29.90;1.00
13850;DHT22;6995;52.618;13.488;2022-07-29T12:18:57;30.20;1.00
13850;DHT22;6995;52.618;13.488;2022-07-29T12:21:23;30.50;1.00
13850;DHT22;6995;52.618;13.488;2022-07-29T12:23:53;30.70;1.00
13850;DHT22;6995;52.618;13.488;2022-07-29T12:26:20;30.90;1.00
13850;DHT22;6995;52.618;13.488;2022-07-29T12:28:45;31.30;1.00
13850;DHT22;6995;52.618;13.488;2022-07-29T12:31:18;31.50;1.00
13850;DHT22;6995;52.618;13.488;2022-07-29T12:33:51;31.90;1.00
13850;DHT22;6995;52.618;13.488;2022-07-29T12:36:17;32.40;1.00
13850;DHT22;6995;52.618;13.488;2022-07-29T12:38:43;32.80;1.00
13850;DHT22;6995;52.618;13.488;2022-07-29T12:41:10;32.80;1.00
13850;DHT22;6995;52.618;13.488;2022-07-29T12:43:36;32.70;1.00
13850;DHT22;6995;52.618;13.488;2022-07-29T12:46:14;32.90;1.00
13850;DHT22;6995;52.618;13.488;2022-07-29T12:48:42;32.30;1.00
13850;DHT22;6995;52.618;13.488;2022-07-29T12:51:09;32.00;1.00
13850;DHT22;6995;52.618;13.488;2022-07-29T12:53:36;32.20;1.00
13850;DHT22;6995;52.618;13.488;2022-07-29T12:56:03;32.80;1.00
13850;DHT22;6995;52.618;13.488;2022-07-29T12:58:36;33.40;1.00
13850;DHT22;6995;52.618;13.488;2022-07-29T13:01:10;34.20;1.00
13850;DHT22;6995;52.618;13.488;2022-07-29T13:03:57;34.20;1.00
13850;DHT22;6995;52.618;13.488;2022-07-29T13:06:40;34.50;1.00
13850;DHT22;6995;52.618;13.488;2022-07-29T13:09:09;35.10;1.00
13850;DHT22;6995;52.618;13.488;2022-07-29T13:11:43;35.10;1.00
13850;DHT22;6995;52.618;13.488;2022-07-29T13:14:11;34.70;1.00
13850;DHT22;6995;52.618;13.488;2022-07-29T13:19:38;33.80;1.00
13850;DHT22;6995;52.618;13.488;2022-07-29T13:22:06;34.30;1.00
13850;DHT22;6995;52.618;13.488;2022-07-29T13:24:33;35.10;1.00
13850;DHT22;6995;52.618;13.488;2022-07-29T13:26:59;35.80;1.00
13850;DHT22;6995;52.618;13.488;2022-07-29T13:29:24;36.20;1.00
13850;DHT22;6995;52.618;13.488;2022-07-29T13:31:52;36.30;1.00
13850;DHT22;6995;52.618;13.488;2022-07-29T13:34:20;36.50;1.00
13850;DHT22;6995;52.618;13.488;2022-07-29T13:36:47;36.50;1.00
13850;DHT22;6995;52.618;13.488;2022-07-29T13:39:13;36.30;1.00
13850;DHT22;6995;52.618;13.488;2022-07-29T13:41:38;36.50;1.00
13850;DHT22;6995;52.618;13.488;2022-07-29T13:44:04;36.50;1.00
13850;DHT22;6995;52.618;13.488;2022-07-29T13:46:32;35.40;1.00
13850;DHT22;6995;52.618;13.488;2022-07-29T13:48:57;33.90;1.00
13850;DHT22;6995;52.618;13.488;2022-07-29T13:51:23;32.40;1.00
13850;DHT22;6995;52.618;13.488;2022-07-29T13:53:49;31.50;1.00
13850;DHT22;6995;52.618;13.488;2022-07-29T13:56:14;31.80;1.00
13850;DHT22;6995;52.618;13.488;2022-07-29T13:58:40;32.60;1.00
13850;DHT22;6995;52.618;13.488;2022-07-29T14:01:05;33.00;1.00
13850;DHT22;6995;52.618;13.488;2022-07-29T14:03:31;32.30;1.00
13850;DHT22;6995;52.618;13.488;2022-07-29T14:05:57;31.70;1.00
13850;DHT22;6995;52.618;13.488;2022-07-29T14:08:25;30.90;1.00
13850;DHT22;6995;52.618;13.488;2022-07-29T14:10:51;31.70;1.00
13850;DHT22;6995;52.618;13.488;2022-07-29T14:13:17;33.10;1.00
13850;DHT22;6995;52.618;13.488;2022-07-29T14:15:42;34.50;1.00
13850;DHT22;6995;52.618;13.488;2022-07-29T14:18:08;36.00;1.00
13850;DHT22;6995;52.618;13.488;2022-07-29T14:20:34;36.60;1.00
13850;DHT22;6995;52.618;13.488;2022-07-29T14:22:59;36.90;1.00
13850;DHT22;6995;52.618;13.488;2022-07-29T14:25:25;37.50;1.00
13850;DHT22;6995;52.618;13.488;2022-07-29T14:27:51;38.00;1.00
13850;DHT22;6995;52.618;13.488;2022-07-29T14:30:18;38.30;1.00
13850;DHT22;6995;52.618;13.488;2022-07-29T14:32:44;37.50;1.00
13850;DHT22;6995;52.618;13.488;2022-07-29T14:35:10;35.80;1.00
13850;DHT22;6995;52.618;13.488;2022-07-29T14:37:35;35.30;1.00
13850;DHT22;6995;52.618;13.488;2022-07-29T14:40:02;36.10;1.00
13850;DHT22;6995;52.618;13.488;2022-07-29T14:42:29;36.90;1.00
